createdAt,value
2018-08-09T00:00:49.361Z,26.00
2018-08-09T00:03:17.602Z,26.00
2018-08-09T00:05:45.819Z,26.00
2018-08-09T00:08:13.966Z,25.90
2018-08-09T00:10:42.114Z,25.90
2018-08-09T00:13:10.659Z,25.90
2018-08-09T00:15:38.869Z,25.90
2018-08-09T00:18:07.235Z,25.80
2018-08-09T00:20:35.424Z,25.80
2018-08-09T00:23:03.563Z,25.90
2018-08-09T00:25:31.679Z,25.80
2018-08-09T00:27:59.843Z,25.80
2018-08-09T00:30:28.005Z,25.80
2018-08-09T00:32:56.333Z,25.80
2018-08-09T00:35:24.529Z,25.80
2018-08-09T00:37:52.715Z,25.70
2018-08-09T00:40:20.819Z,25.80
2018-08-09T00:42:48.962Z,25.80
2018-08-09T00:45:17.208Z,25.80
2018-08-09T00:47:45.951Z,25.80
2018-08-09T00:50:14.097Z,25.70
2018-08-09T00:52:42.235Z,25.70
2018-08-09T00:55:10.583Z,25.70
2018-08-09T00:57:38.709Z,25.70
2018-08-09T01:00:06.908Z,25.60
2018-08-09T01:02:35.181Z,25.50
2018-08-09T01:05:03.457Z,25.50
2018-08-09T01:07:31.603Z,25.40
2018-08-09T01:09:59.929Z,25.30
2018-08-09T01:12:28.299Z,25.30
2018-08-09T01:14:56.453Z,25.20
2018-08-09T01:17:24.567Z,25.20
2018-08-09T01:19:52.741Z,25.10
2018-08-09T01:22:21.391Z,25.10
2018-08-09T01:24:49.530Z,25.00
2018-08-09T01:27:17.745Z,24.90
2018-08-09T01:29:45.887Z,24.80
2018-08-09T01:32:14.060Z,24.70
2018-08-09T01:34:42.231Z,24.60
2018-08-09T01:37:10.393Z,24.50
2018-08-09T01:39:38.568Z,24.40
2018-08-09T01:42:18.393Z,24.40
2018-08-09T01:44:46.581Z,24.40
2018-08-09T01:47:14.789Z,24.30
2018-08-09T01:49:43.083Z,24.30
2018-08-09T01:52:11.347Z,24.20
2018-08-09T01:54:39.513Z,24.10
2018-08-09T01:57:07.711Z,24.00
2018-08-09T01:59:36.897Z,23.90
2018-08-09T02:02:05.126Z,23.90
2018-08-09T02:04:33.255Z,23.90
2018-08-09T02:07:01.439Z,23.80
2018-08-09T02:09:32.395Z,23.80
2018-08-09T02:12:01.111Z,23.70
2018-08-09T02:14:29.266Z,23.70
2018-08-09T02:16:57.437Z,23.70
2018-08-09T02:19:25.562Z,23.60
2018-08-09T02:21:53.712Z,23.50
2018-08-09T02:24:21.864Z,23.50
2018-08-09T02:26:50.009Z,23.50
2018-08-09T02:29:18.130Z,23.40
2018-08-09T02:31:46.319Z,23.40
2018-08-09T02:34:14.523Z,23.40
2018-08-09T02:36:42.739Z,23.40
2018-08-09T02:39:11.343Z,23.30
2018-08-09T02:41:39.621Z,23.30
2018-08-09T02:44:07.969Z,23.30
2018-08-09T02:46:36.392Z,23.30
2018-08-09T02:49:04.535Z,23.20
2018-08-09T02:51:32.701Z,23.20
2018-08-09T02:54:00.839Z,23.10
2018-08-09T02:56:29.107Z,23.10
2018-08-09T02:58:57.679Z,23.10
2018-08-09T03:01:25.829Z,23.00
2018-08-09T03:03:53.937Z,23.00
2018-08-09T03:06:22.123Z,23.00
2018-08-09T03:08:50.485Z,23.00
2018-08-09T03:11:18.621Z,23.10
2018-08-09T03:13:47.081Z,23.00
2018-08-09T03:16:15.256Z,22.90
2018-08-09T03:18:43.387Z,22.90
2018-08-09T03:21:11.664Z,22.90
2018-08-09T03:23:39.845Z,22.80
2018-08-09T03:26:08.035Z,22.80
2018-08-09T03:28:36.260Z,22.70
2018-08-09T03:31:04.461Z,22.70
2018-08-09T03:33:32.603Z,22.60
2018-08-09T03:36:00.726Z,22.60
2018-08-09T03:38:28.948Z,22.60
2018-08-09T03:40:57.203Z,22.60
2018-08-09T03:43:25.409Z,22.60
2018-08-09T03:45:53.664Z,22.60
2018-08-09T03:48:21.902Z,22.60
2018-08-09T03:50:50.102Z,22.60
2018-08-09T03:53:18.317Z,22.60
2018-08-09T03:55:46.535Z,22.60
2018-08-09T03:58:14.893Z,22.60
2018-08-09T04:00:43.270Z,22.60
2018-08-09T04:03:11.418Z,22.60
2018-08-09T04:05:39.565Z,22.60
2018-08-09T04:08:08.786Z,22.60
2018-08-09T04:10:36.936Z,22.60
2018-08-09T04:13:05.183Z,22.60
2018-08-09T04:15:33.344Z,22.60
2018-08-09T04:18:01.727Z,22.60
2018-08-09T04:20:30.168Z,22.60
2018-08-09T04:22:58.318Z,22.70
2018-08-09T04:25:26.636Z,22.70
2018-08-09T04:27:54.883Z,22.70
2018-08-09T04:30:23.087Z,22.70
2018-08-09T04:32:51.314Z,22.80
2018-08-09T04:35:19.553Z,22.80
2018-08-09T04:37:47.945Z,22.90
2018-08-09T04:40:16.108Z,22.90
2018-08-09T04:42:44.286Z,23.00
2018-08-09T04:45:12.560Z,23.00
2018-08-09T04:47:40.868Z,23.10
2018-08-09T04:50:09.296Z,23.10
2018-08-09T04:52:37.420Z,23.20
2018-08-09T04:55:05.584Z,23.30
2018-08-09T04:57:33.876Z,23.30
2018-08-09T05:00:02.011Z,23.30
2018-08-09T05:02:30.228Z,23.40
2018-08-09T05:04:58.538Z,23.50
2018-08-09T05:07:26.746Z,23.60
2018-08-09T05:09:54.885Z,23.90
2018-08-09T05:12:23.184Z,24.40
2018-08-09T05:14:51.342Z,24.90
2018-08-09T05:17:19.543Z,25.30
2018-08-09T05:19:47.705Z,25.60
2018-08-09T05:22:15.887Z,26.00
2018-08-09T05:24:44.025Z,26.10
2018-08-09T05:27:12.137Z,26.20
2018-08-09T05:29:40.278Z,26.30
2018-08-09T05:32:08.541Z,26.40
2018-08-09T05:34:36.744Z,26.60
2018-08-09T05:37:04.904Z,26.70
2018-08-09T05:39:33.152Z,26.90
2018-08-09T05:42:01.301Z,27.00
2018-08-09T05:44:29.454Z,27.20
2018-08-09T05:46:57.688Z,27.20
2018-08-09T05:49:26.096Z,27.20
2018-08-09T05:51:54.246Z,27.30
2018-08-09T05:54:22.447Z,27.50
2018-08-09T05:56:50.700Z,27.50
2018-08-09T05:59:18.857Z,27.40
2018-08-09T06:01:47.185Z,27.30
2018-08-09T06:04:15.346Z,27.40
2018-08-09T06:06:44.116Z,27.60
2018-08-09T06:09:13.178Z,27.60
2018-08-09T06:11:41.328Z,27.70
2018-08-09T06:14:10.276Z,27.80
2018-08-09T06:16:38.450Z,27.90
2018-08-09T06:19:07.137Z,27.80
2018-08-09T06:21:35.350Z,27.90
2018-08-09T06:24:03.529Z,28.00
2018-08-09T06:26:31.757Z,28.00
2018-08-09T06:28:59.944Z,27.90
2018-08-09T06:31:28.342Z,28.10
2018-08-09T06:33:56.556Z,28.30
2018-08-09T06:36:25.187Z,28.50
2018-08-09T06:38:53.388Z,28.50
2018-08-09T06:41:21.532Z,28.50
2018-08-09T06:43:49.812Z,28.40
2018-08-09T06:46:17.965Z,28.50
2018-08-09T06:48:46.767Z,28.40
2018-08-09T06:51:14.926Z,28.50
2018-08-09T06:53:43.182Z,28.70
2018-08-09T06:56:11.417Z,28.90
2018-08-09T06:58:39.633Z,29.00
2018-08-09T07:01:07.845Z,28.90
2018-08-09T07:03:36.150Z,28.90
2018-08-09T07:06:04.499Z,28.70
2018-08-09T07:08:32.635Z,28.70
2018-08-09T07:11:00.931Z,28.90
2018-08-09T07:13:29.189Z,28.90
2018-08-09T07:15:58.512Z,29.00
2018-08-09T07:18:26.707Z,29.00
2018-08-09T07:20:55.203Z,29.10
2018-08-09T07:23:23.378Z,29.10
2018-08-09T07:25:51.560Z,29.10
2018-08-09T07:28:19.828Z,28.80
2018-08-09T07:30:48.076Z,28.60
2018-08-09T07:33:16.207Z,28.60
2018-08-09T07:35:44.567Z,28.70
2018-08-09T07:38:12.742Z,28.70
2018-08-09T07:40:40.947Z,28.70
2018-08-09T07:43:10.187Z,28.80
2018-08-09T07:45:38.475Z,28.90
2018-08-09T07:48:06.676Z,28.80
2018-08-09T07:50:34.905Z,28.80
2018-08-09T07:53:03.182Z,28.70
2018-08-09T07:55:31.423Z,28.70
2018-08-09T07:57:59.688Z,28.60
2018-08-09T08:00:27.966Z,28.40
2018-08-09T08:02:56.106Z,28.40
2018-08-09T08:05:24.414Z,28.40
2018-08-09T08:07:52.637Z,28.40
2018-08-09T08:10:20.974Z,28.40
2018-08-09T08:12:49.159Z,28.50
2018-08-09T08:15:17.353Z,28.50
2018-08-09T08:17:45.551Z,28.50
2018-08-09T08:20:14.005Z,28.40
2018-08-09T08:22:42.346Z,28.50
2018-08-09T08:25:10.547Z,28.20
2018-08-09T08:27:38.680Z,28.10
2018-08-09T08:30:09.862Z,28.10
2018-08-09T08:32:38.458Z,28.10
2018-08-09T08:35:06.740Z,28.20
2018-08-09T08:37:35.144Z,28.30
2018-08-09T08:40:03.332Z,28.40
2018-08-09T08:42:31.449Z,28.50
2018-08-09T08:44:59.634Z,28.40
2018-08-09T08:47:27.842Z,28.50
2018-08-09T08:49:55.984Z,28.60
2018-08-09T08:52:24.203Z,28.80
2018-08-09T08:54:52.388Z,28.90
2018-08-09T08:57:20.568Z,28.90
2018-08-09T08:59:48.770Z,28.90
2018-08-09T09:02:17.052Z,28.90
2018-08-09T09:04:45.294Z,28.90
2018-08-09T09:07:13.506Z,29.00
2018-08-09T09:09:41.757Z,29.00
2018-08-09T09:12:10.015Z,29.00
2018-08-09T09:14:38.196Z,28.80
2018-08-09T09:17:06.390Z,28.80
2018-08-09T09:19:34.698Z,28.80
2018-08-09T09:22:03.274Z,28.80
2018-08-09T09:24:32.195Z,28.80
2018-08-09T09:27:00.373Z,28.80
2018-08-09T09:29:35.166Z,28.90
2018-08-09T09:32:03.425Z,29.00
2018-08-09T09:34:31.822Z,29.10
2018-08-09T09:37:00.060Z,29.10
2018-08-09T09:39:28.286Z,29.20
2018-08-09T09:41:56.506Z,29.30
2018-08-09T09:44:24.802Z,29.20
2018-08-09T09:46:53.030Z,29.30
2018-08-09T09:49:21.341Z,29.20
2018-08-09T09:51:49.644Z,29.10
2018-08-09T09:54:18.027Z,29.00
2018-08-09T09:56:46.464Z,29.20
2018-08-09T09:59:14.616Z,29.30
2018-08-09T10:01:42.795Z,29.30
2018-08-09T10:04:10.988Z,29.40
2018-08-09T10:06:39.211Z,29.50
2018-08-09T10:09:09.910Z,29.50
2018-08-09T10:11:38.270Z,29.60
2018-08-09T10:14:06.570Z,29.60
2018-08-09T10:16:35.030Z,29.70
2018-08-09T10:19:03.257Z,29.80
2018-08-09T10:21:31.624Z,30.00
2018-08-09T10:23:59.749Z,30.00
2018-08-09T10:26:27.984Z,30.00
2018-08-09T10:28:56.098Z,30.00
2018-08-09T10:31:24.415Z,30.00
2018-08-09T10:33:52.569Z,30.00
2018-08-09T10:36:20.739Z,30.10
2018-08-09T10:38:48.890Z,30.10
2018-08-09T10:41:17.034Z,30.10
2018-08-09T10:43:45.261Z,30.10
2018-08-09T10:46:13.748Z,30.10
2018-08-09T10:48:42.068Z,30.20
2018-08-09T10:51:10.211Z,30.30
2018-08-09T10:53:38.332Z,30.30
2018-08-09T10:56:06.522Z,30.40
2018-08-09T10:58:34.744Z,30.50
2018-08-09T11:01:03.110Z,30.60
2018-08-09T11:03:32.012Z,30.60
2018-08-09T11:06:00.180Z,30.60
2018-08-09T11:08:28.360Z,30.70
2018-08-09T11:10:56.673Z,30.70
2018-08-09T11:13:24.782Z,30.80
2018-08-09T11:15:53.084Z,30.80
2018-08-09T11:18:21.253Z,30.80
2018-08-09T11:20:49.548Z,30.80
2018-08-09T11:23:17.934Z,30.90
2018-08-09T11:25:46.109Z,30.80
2018-08-09T11:28:14.254Z,30.70
2018-08-09T11:30:42.488Z,30.80
2018-08-09T11:33:10.730Z,30.90
2018-08-09T11:35:39.146Z,31.00
2018-08-09T11:38:07.288Z,31.10
2018-08-09T11:40:35.465Z,31.10
2018-08-09T11:43:03.686Z,31.30
2018-08-09T11:45:31.792Z,31.40
2018-08-09T11:48:00.195Z,31.40
2018-08-09T11:50:28.364Z,31.40
2018-08-09T11:52:56.519Z,31.50
2018-08-09T11:55:24.662Z,31.50
2018-08-09T11:57:53.178Z,31.60
2018-08-09T12:00:21.371Z,31.60
2018-08-09T12:02:49.534Z,31.70
2018-08-09T12:05:17.804Z,31.70
2018-08-09T12:07:46.040Z,31.70
2018-08-09T12:10:14.380Z,31.70
2018-08-09T12:12:42.520Z,31.80
2018-08-09T12:15:10.839Z,31.90
2018-08-09T12:17:38.982Z,31.90
2018-08-09T12:20:07.436Z,31.90
2018-08-09T12:22:35.610Z,32.00
2018-08-09T12:25:04.011Z,32.00
2018-08-09T12:27:32.240Z,32.10
2018-08-09T12:30:00.659Z,32.20
2018-08-09T12:32:28.795Z,32.20
2018-08-09T12:34:56.953Z,32.20
2018-08-09T12:37:25.164Z,32.20
2018-08-09T12:39:53.512Z,32.20
2018-08-09T12:42:21.829Z,32.30
2018-08-09T12:44:49.955Z,32.30
2018-08-09T12:47:18.094Z,32.40
2018-08-09T12:49:46.345Z,32.30
2018-08-09T12:52:14.648Z,32.30
2018-08-09T12:54:42.885Z,32.40
2018-08-09T12:57:11.101Z,32.50
2018-08-09T12:59:39.401Z,32.50
2018-08-09T13:02:07.641Z,32.60
2018-08-09T13:04:35.835Z,32.50
2018-08-09T13:07:04.137Z,32.50
2018-08-09T13:09:32.307Z,32.50
2018-08-09T13:12:00.482Z,32.50
2018-08-09T13:14:29.299Z,32.50
2018-08-09T13:16:57.483Z,32.70
2018-08-09T13:19:25.723Z,32.70
2018-08-09T13:21:53.873Z,32.90
2018-08-09T13:24:22.626Z,33.00
2018-08-09T13:26:50.789Z,33.10
2018-08-09T13:29:18.943Z,33.20
2018-08-09T13:31:47.167Z,33.20
2018-08-09T13:34:15.346Z,33.20
2018-08-09T13:36:43.516Z,33.20
2018-08-09T13:39:13.471Z,33.10
2018-08-09T13:41:42.579Z,33.20
2018-08-09T13:44:11.060Z,33.20
2018-08-09T13:46:39.185Z,33.10
2018-08-09T13:49:07.311Z,33.20
2018-08-09T13:51:35.503Z,33.20
2018-08-09T13:54:03.689Z,33.20
2018-08-09T13:56:32.005Z,33.30
2018-08-09T13:59:00.194Z,33.30
2018-08-09T14:01:28.370Z,33.30
2018-08-09T14:03:56.656Z,33.30
2018-08-09T14:06:24.811Z,33.20
2018-08-09T14:08:52.943Z,33.20
2018-08-09T14:11:21.056Z,33.10
2018-08-09T14:13:49.307Z,33.10
2018-08-09T14:16:17.660Z,33.10
2018-08-09T14:18:45.855Z,33.10
2018-08-09T14:21:14.059Z,33.10
2018-08-09T14:23:42.242Z,33.10
2018-08-09T14:26:10.433Z,33.20
2018-08-09T14:28:38.643Z,33.20
2018-08-09T14:31:06.797Z,33.10
2018-08-09T14:33:34.929Z,33.20
2018-08-09T14:36:03.142Z,33.20
2018-08-09T14:38:31.304Z,33.20
2018-08-09T14:40:59.488Z,33.20
2018-08-09T14:43:27.691Z,33.10
2018-08-09T14:45:55.928Z,33.10
2018-08-09T14:48:24.870Z,33.10
2018-08-09T14:50:54.259Z,33.10
2018-08-09T14:53:22.475Z,33.10
2018-08-09T14:55:51.704Z,33.20
2018-08-09T14:58:20.062Z,33.20
2018-08-09T15:00:48.331Z,33.20
2018-08-09T15:03:17.348Z,33.10
2018-08-09T15:05:45.873Z,33.20
2018-08-09T15:08:14.379Z,33.10
2018-08-09T15:10:42.746Z,33.10
2018-08-09T15:13:10.932Z,33.10
2018-08-09T15:15:39.212Z,33.20
2018-08-09T15:18:07.410Z,33.10
2018-08-09T15:20:35.546Z,33.10
2018-08-09T15:23:03.686Z,33.10
2018-08-09T15:25:31.870Z,33.10
2018-08-09T15:27:59.998Z,33.10
2018-08-09T15:30:28.132Z,33.10
2018-08-09T15:32:56.328Z,33.10
2018-08-09T15:35:24.510Z,33.10
2018-08-09T15:37:52.676Z,33.10
2018-08-09T15:40:20.828Z,33.10
2018-08-09T15:42:48.942Z,33.10
2018-08-09T15:45:17.181Z,33.10
2018-08-09T15:47:45.572Z,33.10
2018-08-09T15:50:16.106Z,33.10
2018-08-09T15:52:44.411Z,33.10
2018-08-09T15:55:13.725Z,33.10
2018-08-09T15:57:41.842Z,33.10
2018-08-09T16:00:20.515Z,33.00
2018-08-09T16:02:48.622Z,33.00
2018-08-09T16:05:17.519Z,33.00
2018-08-09T16:07:46.042Z,33.00
2018-08-09T16:10:15.307Z,33.00
2018-08-09T16:12:43.628Z,33.00
2018-08-09T16:15:14.002Z,33.00
2018-08-09T16:17:42.582Z,33.00
2018-08-09T16:20:11.500Z,33.00
2018-08-09T16:22:39.722Z,33.00
2018-08-09T16:25:10.828Z,33.00
2018-08-09T16:27:39.152Z,32.90
2018-08-09T16:30:17.850Z,32.90
2018-08-09T16:32:46.062Z,32.90
2018-08-09T16:35:14.458Z,32.90
2018-08-09T16:37:43.710Z,32.80
2018-08-09T16:40:15.573Z,32.80
2018-08-09T16:42:44.247Z,32.80
2018-08-09T16:45:14.022Z,32.70
2018-08-09T16:47:42.372Z,32.70
2018-08-09T16:50:12.621Z,32.70
2018-08-09T16:52:40.794Z,32.70
2018-08-09T16:55:10.685Z,32.70
2018-08-09T16:57:39.016Z,32.70
2018-08-09T17:00:09.935Z,32.70
2018-08-09T17:02:38.753Z,32.60
2018-08-09T17:05:10.219Z,32.60
2018-08-09T17:07:38.560Z,32.50
2018-08-09T17:10:08.413Z,32.50
2018-08-09T17:12:36.570Z,32.50
2018-08-09T17:15:07.569Z,32.40
2018-08-09T17:17:35.767Z,32.40
2018-08-09T17:20:07.525Z,32.30
2018-08-09T17:22:35.750Z,32.30
2018-08-09T17:25:04.095Z,32.20
2018-08-09T17:27:32.241Z,32.20
2018-08-09T17:30:00.420Z,32.10
2018-08-09T17:32:28.835Z,32.00
2018-08-09T17:34:56.995Z,31.90
2018-08-09T17:37:25.533Z,31.80
2018-08-09T17:39:53.626Z,31.70
2018-08-09T17:42:21.934Z,31.70
2018-08-09T17:44:50.542Z,31.70
2018-08-09T17:47:19.435Z,31.60
2018-08-09T17:49:47.577Z,31.60
2018-08-09T17:52:15.744Z,31.50
2018-08-09T17:54:44.056Z,31.50
2018-08-09T17:57:12.207Z,31.40
2018-08-09T17:59:40.346Z,31.30
2018-08-09T18:02:08.514Z,31.30
2018-08-09T18:04:36.699Z,31.20
2018-08-09T18:07:04.821Z,31.10
2018-08-09T18:09:33.484Z,31.10
2018-08-09T18:12:02.507Z,30.90
2018-08-09T18:14:30.655Z,30.90
2018-08-09T18:16:58.825Z,30.90
2018-08-09T18:19:26.987Z,30.90
2018-08-09T18:21:55.242Z,30.90
2018-08-09T18:24:23.413Z,30.80
2018-08-09T18:26:51.685Z,30.70
2018-08-09T18:29:19.940Z,30.60
2018-08-09T18:31:48.070Z,30.60
2018-08-09T18:34:16.274Z,30.50
2018-08-09T18:36:44.398Z,30.40
2018-08-09T18:39:12.664Z,30.40
2018-08-09T18:41:40.795Z,30.40
2018-08-09T18:44:09.156Z,30.40
2018-08-09T18:46:37.344Z,30.30
2018-08-09T18:49:05.523Z,30.30
2018-08-09T18:51:33.773Z,30.20
2018-08-09T18:54:02.004Z,30.20
2018-08-09T18:56:30.851Z,30.20
2018-08-09T18:58:59.290Z,30.10
2018-08-09T19:01:27.540Z,30.10
2018-08-09T19:03:55.788Z,30.00
2018-08-09T19:06:24.029Z,29.90
2018-08-09T19:08:52.245Z,29.90
2018-08-09T19:11:20.921Z,29.80
2018-08-09T19:13:49.171Z,29.70
2018-08-09T19:16:17.329Z,29.60
2018-08-09T19:18:45.505Z,29.60
2018-08-09T19:21:13.698Z,29.50
2018-08-09T19:23:41.941Z,29.50
2018-08-09T19:26:10.209Z,29.50
2018-08-09T19:28:38.453Z,29.50
2018-08-09T19:31:06.706Z,29.40
2018-08-09T19:33:34.951Z,29.40
2018-08-09T19:36:03.141Z,29.30
2018-08-09T19:38:31.449Z,29.30
2018-08-09T19:40:59.625Z,29.20
2018-08-09T19:43:27.905Z,29.10
2018-08-09T19:45:56.083Z,29.10
2018-08-09T19:48:24.406Z,29.00
2018-08-09T19:50:52.640Z,29.00
2018-08-09T19:53:20.964Z,29.00
2018-08-09T19:55:49.149Z,29.10
2018-08-09T19:58:17.349Z,29.20
2018-08-09T20:00:46.899Z,29.40
2018-08-09T20:03:15.088Z,29.30
2018-08-09T20:05:43.236Z,29.10
2018-08-09T20:08:11.402Z,28.80
2018-08-09T20:10:39.533Z,28.50
2018-08-09T20:13:07.837Z,28.30
2018-08-09T20:15:36.000Z,28.00
2018-08-09T20:18:04.311Z,27.90
2018-08-09T20:20:32.612Z,27.70
2018-08-09T20:23:01.001Z,27.50
2018-08-09T20:25:29.142Z,27.40
2018-08-09T20:27:58.785Z,27.20
2018-08-09T20:30:26.921Z,27.10
2018-08-09T20:32:55.099Z,27.00
2018-08-09T20:35:24.062Z,26.90
2018-08-09T20:37:52.535Z,26.80
2018-08-09T20:40:21.974Z,26.70
2018-08-09T20:42:51.115Z,26.60
2018-08-09T20:45:20.638Z,26.40
2018-08-09T20:47:48.807Z,26.40
2018-08-09T20:50:19.645Z,26.30
2018-08-09T20:52:48.739Z,26.20
2018-08-09T20:55:17.085Z,26.20
2018-08-09T20:57:46.013Z,26.10
2018-08-09T21:00:19.000Z,26.00
2018-08-09T21:02:48.513Z,25.90
2018-08-09T21:05:17.420Z,25.70
2018-08-09T21:07:45.579Z,25.50
2018-08-09T21:10:13.941Z,25.40
2018-08-09T21:12:42.117Z,25.30
2018-08-09T21:15:10.302Z,25.20
2018-08-09T21:17:38.611Z,25.20
2018-08-09T21:20:07.151Z,25.10
2018-08-09T21:22:35.279Z,25.00
2018-08-09T21:25:03.654Z,25.00
2018-08-09T21:27:31.796Z,24.90
2018-08-09T21:30:00.051Z,24.90
2018-08-09T21:32:28.973Z,24.90
2018-08-09T21:34:57.095Z,24.80
2018-08-09T21:37:25.323Z,24.80
2018-08-09T21:39:53.539Z,24.80
2018-08-09T21:42:21.641Z,24.80
2018-08-09T21:44:49.829Z,24.80
2018-08-09T21:47:17.980Z,24.70
2018-08-09T21:49:46.142Z,24.70
2018-08-09T21:52:14.303Z,24.70
2018-08-09T21:54:42.485Z,24.70
2018-08-09T21:57:10.589Z,24.70
2018-08-09T21:59:38.834Z,24.60
2018-08-09T22:02:07.067Z,24.60
2018-08-09T22:04:39.553Z,24.60
2018-08-09T22:07:13.057Z,24.40
2018-08-09T22:09:46.923Z,24.50
2018-08-09T22:12:20.747Z,24.50
2018-08-09T22:14:54.453Z,24.50
2018-08-09T22:17:27.921Z,24.50
2018-08-09T22:20:01.583Z,24.50
2018-08-09T22:22:29.730Z,24.40
2018-08-09T22:24:57.943Z,24.40
2018-08-09T22:27:26.083Z,24.40
2018-08-09T22:29:54.392Z,24.40
2018-08-09T22:32:22.501Z,24.30
2018-08-09T22:34:50.621Z,24.30
2018-08-09T22:37:18.850Z,24.30
2018-08-09T22:39:47.019Z,24.20
2018-08-09T22:42:15.318Z,24.20
2018-08-09T22:44:43.510Z,24.20
2018-08-09T22:47:11.807Z,24.10
2018-08-09T22:49:40.007Z,24.10
2018-08-09T22:52:08.285Z,24.00
2018-08-09T22:54:36.439Z,24.00
2018-08-09T22:57:04.695Z,23.90
2018-08-09T22:59:32.988Z,23.90
2018-08-09T23:02:01.200Z,23.80
2018-08-09T23:04:29.523Z,23.70
2018-08-09T23:06:57.808Z,23.70
2018-08-09T23:09:25.976Z,23.60
2018-08-09T23:11:54.182Z,23.60
2018-08-09T23:14:22.456Z,23.60
2018-08-09T23:16:50.598Z,23.60
2018-08-09T23:19:18.769Z,23.60
2018-08-09T23:21:47.039Z,23.60
2018-08-09T23:24:15.361Z,23.50
2018-08-09T23:26:43.504Z,23.50
2018-08-09T23:29:11.655Z,23.50
2018-08-09T23:31:39.814Z,23.40
2018-08-09T23:34:07.977Z,23.40
2018-08-09T23:36:36.117Z,23.30
2018-08-09T23:39:07.981Z,23.30
2018-08-09T23:41:36.191Z,23.30
2018-08-09T23:44:04.339Z,23.20
2018-08-09T23:46:32.604Z,23.20
2018-08-09T23:49:00.751Z,23.20
2018-08-09T23:51:29.774Z,23.10
2018-08-09T23:53:58.025Z,23.20
2018-08-09T23:56:27.758Z,23.10
2018-08-09T23:58:55.957Z,23.10
